Time;durP1;ratioP1;P1;durP2;ratioP2;P2;SDS_P1;SDS_P2;PMS_P1;PMS_P2;Temp;Humidity;BMP_temperature;BMP_pressure;BME280_temperature;BME280_humidity;BME280_pressure;Samples;Min_cycle;Max_cycle;Signal;HPM_P1;HPM_P2
2022/04/03 00:01:19;;;;;;;0.70;0.30;;;;;;;19.41;49.01;99775.66;4925534;29;20047;-53
2022/04/03 00:03:44;;;;;;;2.65;0.20;;;;;;;19.41;48.89;99788.88;4927669;29;20039;-51
2022/04/03 00:06:10;;;;;;;2.00;0.47;;;;;;;19.41;48.94;99783.59;4927452;29;20071;-50
2022/04/03 00:08:36;;;;;;;0.85;0.20;;;;;;;19.41;48.75;99788.88;4927199;29;20061;-52
2022/04/03 00:11:02;;;;;;;1.05;0.40;;;;;;;19.40;48.87;99792.53;4925939;28;20032;-52
2022/04/03 00:13:27;;;;;;;1.45;0.30;;;;;;;19.40;48.82;99797.81;4926225;29;20101;-52
2022/04/03 00:15:53;;;;;;;1.45;0.17;;;;;;;19.40;48.72;99799.66;4926283;29;20042;-54
2022/04/03 00:18:18;;;;;;;0.68;0.20;;;;;;;19.39;48.75;99796.19;4925265;28;20040;-54
2022/04/03 00:20:46;;;;;;;0.90;0.20;;;;;;;19.38;48.95;99793.78;4927401;28;20036;-51
2022/04/03 00:23:12;;;;;;;0.35;0.10;;;;;;;19.38;48.79;99799.88;4926213;29;20035;-51
2022/04/03 00:25:38;;;;;;;1.10;0.20;;;;;;;19.36;48.76;99795.88;4928031;29;20130;-49
2022/04/03 00:28:03;;;;;;;0.60;0.10;;;;;;;19.33;48.78;99799.75;4926349;29;20031;-53
2022/04/03 00:30:29;;;;;;;0.73;0.20;;;;;;;19.31;48.87;99815.00;4927040;28;20171;-51
2022/04/03 00:32:54;;;;;;;1.17;0.20;;;;;;;19.30;49.01;99810.75;4925960;29;20070;-51
2022/04/03 00:35:20;;;;;;;2.30;0.20;;;;;;;19.29;48.98;99800.41;4926631;29;20040;-49
2022/04/03 00:37:46;;;;;;;0.77;0.20;;;;;;;19.28;49.03;99796.94;4926590;29;20031;-53
2022/04/03 00:40:13;;;;;;;0.80;0.20;;;;;;;19.27;49.01;99802.44;4926625;28;20055;-50
2022/04/03 00:42:38;;;;;;;0.55;0.10;;;;;;;19.26;48.86;99806.91;4926361;28;20070;-53
2022/04/03 00:45:05;;;;;;;1.33;0.20;;;;;;;19.25;48.85;99809.78;4925744;29;20439;-49
2022/04/03 00:47:32;;;;;;;0.50;0.20;;;;;;;19.24;49.06;99808.97;4928079;29;20028;-52
2022/04/03 00:49:58;;;;;;;0.90;0.17;;;;;;;19.23;48.78;99813.44;4924912;28;20039;-51
2022/04/03 00:52:24;;;;;;;0.45;0.20;;;;;;;19.23;49.02;99812.63;4926714;29;20114;-51
2022/04/03 00:54:50;;;;;;;0.52;0.20;;;;;;;19.21;49.12;99809.41;4926630;28;20027;-50
2022/04/03 00:57:16;;;;;;;1.58;0.20;;;;;;;19.21;48.86;99810.19;4925591;28;20024;-45
2022/04/03 00:59:42;;;;;;;0.73;0.20;;;;;;;19.21;48.68;99819.97;4926769;29;20447;-49
2022/04/03 01:02:08;;;;;;;1.52;0.20;;;;;;;19.20;48.95;99810.41;4925749;28;20039;-50
2022/04/03 01:04:39;;;;;;;0.80;0.15;;;;;;;19.20;48.89;99819.16;4923856;28;20408;-48
2022/04/03 01:07:05;;;;;;;2.75;0.20;;;;;;;19.21;49.01;99827.88;4926734;29;20038;-55
2022/04/03 01:09:31;;;;;;;0.65;0.20;;;;;;;19.23;48.90;99824.00;4925866;29;20032;-53
2022/04/03 01:11:56;;;;;;;0.65;0.20;;;;;;;19.25;48.71;99825.63;4924687;29;20040;-53
2022/04/03 01:14:33;;;;;;;0.65;0.20;;;;;;;19.23;48.38;99829.28;4926538;28;20056;-54
2022/04/03 01:16:58;;;;;;;0.88;0.20;;;;;;;19.25;48.46;99817.69;4927505;29;20518;-52
2022/04/03 01:19:24;;;;;;;0.63;0.20;;;;;;;19.26;48.49;99832.50;4926538;28;20043;-53
2022/04/03 01:21:50;;;;;;;1.00;0.20;;;;;;;19.26;48.43;99833.31;4925804;28;20119;-56
2022/04/03 01:24:21;;;;;;;1.40;0.20;;;;;;;19.25;48.39;99829.06;4925155;28;20028;-52
2022/04/03 01:26:47;;;;;;;0.82;0.30;;;;;;;19.28;48.32;99833.09;4926387;29;20032;-52
2022/04/03 01:29:15;;;;;;;0.95;0.20;;;;;;;19.28;48.34;99833.91;4926106;29;20507;-50
2022/04/03 01:31:41;;;;;;;0.30;0.20;;;;;;;19.27;48.25;99840.22;4921894;29;20031;-52
2022/04/03 01:34:07;;;;;;;1.77;0.30;;;;;;;19.27;48.29;99834.94;4926019;28;20395;-48
2022/04/03 01:36:32;;;;;;;0.50;0.20;;;;;;;19.26;48.04;99838.59;4926026;29;20391;-52
2022/04/03 01:38:58;;;;;;;1.08;0.30;;;;;;;19.24;47.75;99835.38;4924923;29;20614;-53
2022/04/03 01:41:23;;;;;;;1.00;0.20;;;;;;;19.22;47.85;99840.06;4923870;28;20066;-49
2022/04/03 01:43:49;;;;;;;1.23;0.20;;;;;;;19.21;48.29;99841.09;4926139;29;20544;-52
2022/04/03 01:46:14;;;;;;;0.68;0.20;;;;;;;19.16;48.28;99844.38;4926106;28;20032;-50
2022/04/03 01:48:40;;;;;;;0.68;0.22;;;;;;;19.15;48.35;99839.31;4923694;29;20062;-55
2022/04/03 01:51:05;;;;;;;1.30;0.20;;;;;;;19.14;48.56;99838.50;4925093;28;20032;-51
2022/04/03 01:53:31;;;;;;;0.47;0.10;;;;;;;19.14;48.48;99845.59;4924973;29;20054;-51
2022/04/03 01:56:04;;;;;;;1.17;0.20;;;;;;;19.11;48.68;99844.19;4925081;29;20480;-54
2022/04/03 01:58:29;;;;;;;0.70;0.20;;;;;;;19.11;48.57;99846.03;4926504;28;20043;-49
2022/04/03 02:00:55;;;;;;;0.40;0.20;;;;;;;19.08;48.53;99851.75;4924784;28;20043;-49
2022/04/03 02:03:21;;;;;;;0.40;0.20;;;;;;;19.07;48.52;99848.28;4925787;29;20115;-54
2022/04/03 02:05:47;;;;;;;2.38;0.20;;;;;;;19.07;48.51;99844.84;4926770;29;20089;-54
2022/04/03 02:08:12;;;;;;;0.77;0.20;;;;;;;19.05;48.37;99852.97;4923996;28;20030;-50
2022/04/03 02:13:13;;;;;;;0.93;0.15;;;;;;;19.02;48.24;99852.59;4929969;22;20104;-52
2022/04/03 02:15:39;;;;;;;1.00;0.20;;;;;;;19.01;48.22;99858.91;5006757;28;20038;-49
2022/04/03 02:18:04;;;;;;;1.67;0.30;;;;;;;19.01;47.92;99857.06;5004833;28;20034;-52
2022/04/03 02:20:31;;;;;;;0.82;0.30;;;;;;;19.03;47.44;99862.13;5004564;28;20037;-55
2022/04/03 02:22:58;;;;;;;0.47;0.17;;;;;;;19.05;47.31;99860.91;5006158;28;20038;-47
2022/04/03 02:25:24;;;;;;;0.45;0.20;;;;;;;19.06;47.15;99861.69;5006646;28;20032;-54
2022/04/03 02:27:51;;;;;;;1.60;0.30;;;;;;;19.07;47.27;99865.97;5005818;28;20037;-52
2022/04/03 02:30:17;;;;;;;0.85;0.20;;;;;;;19.07;47.10;99865.97;5006678;28;20029;-47
2022/04/03 02:32:42;;;;;;;0.47;0.10;;;;;;;19.07;47.16;99858.03;5006801;28;20102;-50
2022/04/03 02:35:10;;;;;;;1.15;0.28;;;;;;;19.06;47.01;99867.78;5006099;28;20060;-51
2022/04/03 02:37:37;;;;;;;0.50;0.20;;;;;;;19.06;47.16;99861.69;5005812;28;20068;-50
2022/04/03 02:40:04;;;;;;;0.77;0.20;;;;;;;19.06;47.04;99867.00;5006383;28;20465;-51
2022/04/03 02:42:30;;;;;;;0.32;0.13;;;;;;;19.04;47.21;99863.75;5006745;28;20026;-53
2022/04/03 02:44:55;;;;;;;1.80;0.50;;;;;;;19.04;47.26;99869.03;5005890;28;20052;-50
2022/04/03 02:47:22;;;;;;;0.50;0.10;;;;;;;19.04;47.44;99869.03;5006447;28;20038;-48
2022/04/03 02:49:50;;;;;;;0.30;0.10;;;;;;;19.01;47.35;99870.25;5006402;28;20137;-50
2022/04/03 02:52:16;;;;;;;0.38;0.10;;;;;;;18.98;47.42;99875.16;5006012;28;20133;-51
2022/04/03 02:54:41;;;;;;;0.60;0.10;;;;;;;18.95;47.48;99870.31;5007021;28;20038;-53
2022/04/03 02:57:07;;;;;;;0.45;0.10;;;;;;;18.94;47.50;99871.31;5005535;28;20116;-52
2022/04/03 02:59:33;;;;;;;0.20;0.10;;;;;;;18.91;47.75;99867.28;5006736;28;20026;-53
2022/04/03 03:01:59;;;;;;;0.40;0.10;;;;;;;18.90;47.55;99866.47;5005844;28;20025;-49
2022/04/03 03:04:24;;;;;;;0.55;0.20;;;;;;;18.90;47.47;99876.25;5006244;28;20322;-54
2022/04/03 03:06:50;;;;;;;0.50;0.10;;;;;;;18.89;47.35;99870.16;5006856;28;20120;-52
2022/04/03 03:09:17;;;;;;;0.80;0.20;;;;;;;18.88;47.44;99871.19;5005921;28;20022;-51
2022/04/03 03:11:43;;;;;;;0.50;0.10;;;;;;;18.87;47.41;99877.47;5006210;28;20034;-49
2022/04/03 03:14:08;;;;;;;0.85;0.15;;;;;;;18.88;47.45;99886.22;5005567;28;20504;-49
2022/04/03 03:16:34;;;;;;;1.02;0.20;;;;;;;18.87;47.57;99877.47;5006844;28;20495;-49
2022/04/03 03:18:59;;;;;;;0.65;0.22;;;;;;;18.85;47.37;99890.09;5006231;28;20030;-53
2022/04/03 03:21:25;;;;;;;0.30;0.10;;;;;;;18.85;47.38;99886.63;5006590;28;20029;-48
2022/04/03 03:23:50;;;;;;;0.30;0.10;;;;;;;18.85;47.40;99892.72;5004961;28;20425;-50
2022/04/03 03:26:16;;;;;;;0.80;0.20;;;;;;;18.86;47.59;99896.97;5006595;28;20068;-49
2022/04/03 03:28:41;;;;;;;0.57;0.20;;;;;;;18.89;47.39;99893.91;5006182;28;20033;-53
2022/04/03 03:31:07;;;;;;;0.20;0.10;;;;;;;18.92;47.27;99897.13;5006265;28;20037;-46
2022/04/03 03:33:33;;;;;;;2.03;0.30;;;;;;;18.92;47.13;99903.22;5005537;28;20037;-48
2022/04/03 03:35:59;;;;;;;0.70;0.20;;;;;;;18.94;47.09;99908.28;5006528;28;20412;-51
2022/04/03 03:38:24;;;;;;;1.25;0.20;;;;;;;18.95;46.89;99909.91;4995334;28;20035;-54
2022/04/03 03:40:50;;;;;;;1.13;0.10;;;;;;;18.95;46.96;99908.06;4986699;28;20115;-51
2022/04/03 03:43:16;;;;;;;1.42;0.10;;;;;;;18.96;46.98;99906.25;4997031;28;20077;-53
2022/04/03 03:45:42;;;;;;;0.63;0.20;;;;;;;18.96;46.80;99912.31;5006430;28;20508;-51
2022/04/03 03:48:12;;;;;;;0.40;0.15;;;;;;;18.96;46.96;99922.88;5008483;28;20829;-50
2022/04/03 03:50:38;;;;;;;0.70;0.10;;;;;;;18.96;47.02;99909.69;5009648;28;20660;-46
2022/04/03 03:53:04;;;;;;;1.23;0.20;;;;;;;18.96;46.92;99924.72;5007204;28;20045;-53
2022/04/03 03:55:29;;;;;;;0.52;0.28;;;;;;;18.93;46.69;99931.22;5009765;28;20399;-56
2022/04/03 03:57:55;;;;;;;0.50;0.20;;;;;;;18.92;46.80;99929.59;4999590;28;20462;-51
2022/04/03 04:00:21;;;;;;;0.25;0.10;;;;;;;18.93;46.82;99940.97;5006438;28;20040;-47
2022/04/03 04:02:46;;;;;;;0.22;0.10;;;;;;;18.90;46.81;99944.88;5009304;28;20498;-48
2022/04/03 04:05:12;;;;;;;0.80;0.10;;;;;;;18.89;46.88;99938.78;5009808;28;20034;-53
2022/04/03 04:07:47;;;;;;;0.55;0.20;;;;;;;18.85;46.99;99948.16;5007050;28;20378;-48
2022/04/03 04:10:14;;;;;;;0.63;0.10;;;;;;;18.85;46.92;99944.69;5006510;28;20123;-52
2022/04/03 04:12:41;;;;;;;0.65;0.13;;;;;;;18.84;46.81;99951.00;4989633;28;20050;-46
2022/04/03 04:15:08;;;;;;;0.38;0.10;;;;;;;18.83;46.72;99960.75;4989845;28;20030;-51
2022/04/03 04:17:39;;;;;;;1.70;0.20;;;;;;;18.82;46.73;99956.47;4991455;28;20628;-56
2022/04/03 04:20:06;;;;;;;0.73;0.10;;;;;;;18.81;46.73;99965.41;5009087;28;20034;-47
2022/04/03 04:22:32;;;;;;;0.98;0.20;;;;;;;18.80;46.82;99968.25;5008304;28;20029;-52
2022/04/03 04:24:58;;;;;;;1.00;0.20;;;;;;;18.80;46.76;99971.72;4989735;28;20085;-53
2022/04/03 04:27:23;;;;;;;0.30;0.10;;;;;;;18.79;46.81;99985.94;4990243;28;20030;-51
2022/04/03 04:29:49;;;;;;;0.30;0.10;;;;;;;18.78;46.77;99988.78;5011053;28;20038;-52
2022/04/03 04:32:14;;;;;;;1.70;0.13;;;;;;;18.78;46.87;99999.34;5008784;28;20451;-54
2022/04/03 04:34:39;;;;;;;0.85;0.20;;;;;;;18.76;46.73;99994.25;5009026;28;20026;-54
2022/04/03 04:37:05;;;;;;;0.60;0.20;;;;;;;18.76;46.71;99996.91;5008827;28;20057;-52
2022/04/03 04:39:31;;;;;;;0.40;0.20;;;;;;;18.76;46.83;100002.19;5007864;28;20122;-49
2022/04/03 04:41:57;;;;;;;0.35;0.13;;;;;;;18.77;46.68;100003.00;5008573;28;20087;-51
2022/04/03 04:44:22;;;;;;;1.95;0.10;;;;;;;18.77;46.41;100011.72;5008577;28;20562;-51
2022/04/03 04:46:48;;;;;;;2.80;0.20;;;;;;;18.77;46.30;100013.53;4994810;28;20030;-51
2022/04/03 04:49:16;;;;;;;0.65;0.20;;;;;;;18.78;46.30;100020.44;4991012;28;20037;-46
2022/04/03 04:51:43;;;;;;;0.80;0.20;;;;;;;18.77;46.10;100019.63;5008531;28;20431;-52
2022/04/03 04:54:09;;;;;;;0.73;0.20;;;;;;;18.78;46.03;100020.44;5007558;28;20041;-52
2022/04/03 04:56:35;;;;;;;0.60;0.20;;;;;;;18.77;46.09;100038.09;5008501;28;20026;-53
2022/04/03 04:59:01;;;;;;;0.70;0.20;;;;;;;18.77;46.11;100039.94;5008394;28;20026;-49
2022/04/03 05:01:27;;;;;;;0.32;0.20;;;;;;;18.77;46.12;100050.50;5007176;28;20030;-52
2022/04/03 05:03:52;;;;;;;0.40;0.20;;;;;;;18.76;46.23;100043.59;5008573;28;20033;-48
2022/04/03 05:06:18;;;;;;;1.30;0.20;;;;;;;18.76;46.36;100054.97;5008758;28;20116;-48
2022/04/03 05:08:44;;;;;;;0.30;0.10;;;;;;;18.75;46.50;100063.09;5007905;28;20030;-50
2022/04/03 05:11:11;;;;;;;0.60;0.17;;;;;;;18.74;46.54;100072.03;5008203;28;20113;-49
2022/04/03 05:13:37;;;;;;;0.70;0.20;;;;;;;18.72;46.57;100068.78;5008909;28;20559;-49
2022/04/03 05:16:03;;;;;;;0.50;0.10;;;;;;;18.70;46.71;100079.53;5010526;28;20065;-52
2022/04/03 05:18:29;;;;;;;0.20;0.10;;;;;;;18.68;46.79;100073.66;5009472;28;20367;-48
2022/04/03 05:20:54;;;;;;;0.60;0.10;;;;;;;18.67;46.94;100076.50;5007884;28;20415;-54
2022/04/03 05:23:19;;;;;;;0.40;0.10;;;;;;;18.66;46.94;100088.88;5007780;28;20061;-54
2022/04/03 05:25:45;;;;;;;0.85;0.10;;;;;;;18.66;46.93;100086.25;5007307;28;20038;-54
2022/04/03 05:28:11;;;;;;;0.47;0.10;;;;;;;18.65;47.02;100094.34;5007766;28;20041;-50
2022/04/03 05:30:36;;;;;;;0.80;0.10;;;;;;;18.65;47.09;100092.53;5007749;28;20034;-51
2022/04/03 05:33:02;;;;;;;0.30;0.10;;;;;;;18.62;47.16;100100.84;5007868;28;20432;-52
2022/04/03 05:35:27;;;;;;;0.52;0.20;;;;;;;18.62;47.03;100100.84;5007344;28;20040;-52
2022/04/03 05:37:53;;;;;;;0.25;0.10;;;;;;;18.62;46.94;100111.41;4988069;28;20447;-51
2022/04/03 05:40:19;;;;;;;0.50;0.20;;;;;;;18.62;47.15;100111.41;4999594;28;20393;-54
2022/04/03 05:42:44;;;;;;;0.32;0.20;;;;;;;18.61;47.25;100111.63;5007378;28;20065;-52
2022/04/03 05:45:10;;;;;;;0.77;0.20;;;;;;;18.62;47.09;100126.44;5006624;28;20497;-51
2022/04/03 05:47:36;;;;;;;0.28;0.10;;;;;;;18.64;46.96;100119.13;5007396;28;20092;-47
2022/04/03 05:50:03;;;;;;;0.40;0.20;;;;;;;18.65;47.05;100126.84;5007328;28;20589;-50
2022/04/03 05:52:38;;;;;;;0.70;0.10;;;;;;;18.64;46.99;100130.50;5007330;28;20033;-50
2022/04/03 05:55:05;;;;;;;0.57;0.20;;;;;;;18.66;47.06;100133.72;5007046;28;20342;-49
2022/04/03 05:57:30;;;;;;;0.28;0.20;;;;;;;18.66;47.07;100133.72;5005807;28;20516;-46
2022/04/03 05:59:55;;;;;;;0.28;0.10;;;;;;;18.67;46.91;100140.63;5007266;28;20037;-52
2022/04/03 06:02:22;;;;;;;0.60;0.30;;;;;;;18.68;46.99;100144.91;5006631;28;20041;-53
2022/04/03 06:04:47;;;;;;;0.43;0.20;;;;;;;18.68;46.88;100150.19;5005762;28;20532;-46
2022/04/03 06:07:13;;;;;;;0.60;0.20;;;;;;;18.68;46.79;100144.91;5007327;28;20037;-55
2022/04/03 06:09:38;;;;;;;1.13;0.20;;;;;;;18.70;46.74;100150.78;5005694;28;20280;-50
2022/04/03 06:12:04;;;;;;;0.57;0.25;;;;;;;18.71;46.79;100156.88;5006322;28;20528;-52
2022/04/03 06:14:30;;;;;;;0.50;0.20;;;;;;;18.73;47.12;100162.75;5007324;28;20434;-49
2022/04/03 06:16:55;;;;;;;1.33;0.10;;;;;;;18.74;47.40;100172.28;5006154;28;20042;-50
2022/04/03 06:19:21;;;;;;;0.77;0.10;;;;;;;18.76;47.50;100170.25;5007095;28;20164;-52
2022/04/03 06:21:47;;;;;;;0.30;0.10;;;;;;;18.79;47.73;100183.88;5006777;28;20196;-55
2022/04/03 06:24:12;;;;;;;0.57;0.35;;;;;;;18.79;47.83;100180.41;5005903;28;20030;-53
2022/04/03 06:26:37;;;;;;;0.60;0.10;;;;;;;18.82;48.12;100174.72;4990493;28;20396;-49
2022/04/03 06:29:03;;;;;;;0.75;0.20;;;;;;;18.83;48.39;100190.34;4987274;28;20068;-47
2022/04/03 06:31:29;;;;;;;1.63;0.20;;;;;;;18.86;48.79;100191.78;4987034;28;20516;-48
2022/04/03 06:33:54;;;;;;;1.00;0.17;;;;;;;18.88;48.82;100195.03;4987221;28;20316;-52
2022/04/03 06:36:19;;;;;;;3.00;0.20;;;;;;;18.91;48.49;100202.50;5002909;28;20469;-52
2022/04/03 06:38:45;;;;;;;8.32;0.82;;;;;;;18.95;49.45;100205.56;5006603;28;20038;-48
2022/04/03 06:41:10;;;;;;;1.60;0.30;;;;;;;19.01;50.12;100208.19;4991328;28;20120;-50
2022/04/03 06:43:36;;;;;;;1.30;0.20;;;;;;;19.06;50.42;100210.22;4987325;28;20241;-55
2022/04/03 06:46:02;;;;;;;3.83;0.20;;;;;;;19.09;50.61;100217.72;5000684;28;20037;-47
2022/04/03 06:48:29;;;;;;;2.13;0.20;;;;;;;19.13;50.60;100216.28;5006730;28;20038;-51
2022/04/03 06:50:55;;;;;;;3.70;0.20;;;;;;;19.16;50.87;100227.25;5006561;28;20455;-49
2022/04/03 06:53:20;;;;;;;3.50;0.30;;;;;;;19.18;50.80;100230.50;5004998;28;20029;-50
2022/04/03 06:55:46;;;;;;;0.82;0.20;;;;;;;19.21;51.04;100231.94;5005662;28;20037;-53
2022/04/03 06:58:11;;;;;;;2.05;0.20;;;;;;;19.25;51.30;100233.13;5006408;28;20041;-49
2022/04/03 07:00:41;;;;;;;1.10;0.10;;;;;;;19.29;51.13;100244.91;5006571;28;20364;-50
2022/04/03 07:03:07;;;;;;;0.68;0.20;;;;;;;19.33;51.15;100251.41;5004717;28;20030;-56
2022/04/03 07:05:32;;;;;;;0.68;0.20;;;;;;;19.39;51.32;100252.38;5005674;28;20148;-48
2022/04/03 07:07:58;;;;;;;2.63;0.20;;;;;;;19.42;51.20;100255.44;5006527;28;20536;-55
2022/04/03 07:10:24;;;;;;;0.68;0.20;;;;;;;19.45;51.06;100252.38;5006067;28;20045;-55
2022/04/03 07:12:50;;;;;;;0.85;0.22;;;;;;;19.48;51.15;100251.97;5004823;28;20046;-45
2022/04/03 07:15:15;;;;;;;3.55;0.25;;;;;;;19.51;51.06;100262.16;5003792;28;20030;-52
2022/04/03 07:17:43;;;;;;;0.47;0.13;;;;;;;19.53;50.95;100262.75;4987126;28;20098;-53
2022/04/03 07:20:10;;;;;;;1.13;0.10;;;;;;;19.54;50.89;100259.09;5006037;28;20082;-53
2022/04/03 07:22:35;;;;;;;0.68;0.10;;;;;;;19.55;51.03;100268.66;5009013;28;20045;-47
2022/04/03 07:25:01;;;;;;;0.50;0.20;;;;;;;19.57;50.71;100267.63;5009613;28;20464;-49
2022/04/03 07:27:27;;;;;;;1.05;0.20;;;;;;;19.56;50.62;100277.38;5007909;28;20109;-46
2022/04/03 07:29:52;;;;;;;0.90;0.17;;;;;;;19.58;51.12;100285.09;5010232;28;20026;-54
2022/04/03 07:32:18;;;;;;;3.83;0.40;;;;;;;19.57;50.80;100286.94;5009853;28;20048;-48
2022/04/03 07:34:43;;;;;;;2.85;0.60;;;;;;;19.63;50.96;100287.94;5009468;28;20034;-49
2022/04/03 07:37:09;;;;;;;6.57;0.63;;;;;;;19.73;51.36;100294.41;5009904;28;20033;-49
2022/04/03 07:39:34;;;;;;;7.32;5.90;;;;;;;19.82;51.48;100295.00;5009659;28;20022;-51
2022/04/03 07:41:59;;;;;;;16.20;8.00;;;;;;;19.85;51.51;100300.66;4992438;28;20038;-48
2022/04/03 07:44:25;;;;;;;10.20;7.47;;;;;;;19.86;51.07;100299.63;4990479;28;20117;-45
2022/04/03 07:46:50;;;;;;;12.13;7.05;;;;;;;19.85;50.81;100307.78;5008044;28;20030;-53
2022/04/03 07:49:16;;;;;;;8.93;5.15;;;;;;;19.80;50.99;100307.63;5009799;28;20096;-50
2022/04/03 07:51:42;;;;;;;9.45;4.82;;;;;;;19.78;50.94;100309.66;5009809;28;20045;-48
2022/04/03 07:54:07;;;;;;;5.60;3.80;;;;;;;19.75;50.92;100312.72;5010207;28;20029;-52
2022/04/03 07:56:33;;;;;;;11.93;3.80;;;;;;;19.74;50.83;100314.53;5009190;28;20112;-49
2022/04/03 07:58:58;;;;;;;8.68;3.17;;;;;;;19.74;50.76;100321.66;5009924;28;20417;-48
2022/04/03 08:01:24;;;;;;;4.68;3.60;;;;;;;19.75;50.91;100318.00;5010066;28;20080;-49
2022/04/03 08:03:50;;;;;;;8.13;3.80;;;;;;;19.76;50.84;100319.63;5009573;28;20148;-41
2022/04/03 08:06:15;;;;;;;6.32;3.58;;;;;;;19.76;50.16;100324.91;5008551;28;20033;-48
2022/04/03 08:08:44;;;;;;;7.43;2.60;;;;;;;19.74;49.33;100329.59;5009768;28;20026;-46
2022/04/03 08:11:09;;;;;;;11.02;2.67;;;;;;;19.72;48.86;100329.00;5008968;28;20140;-45
2022/04/03 08:13:35;;;;;;;7.03;2.10;;;;;;;19.69;47.96;100329.41;5008140;28;20484;-46
2022/04/03 08:16:01;;;;;;;11.00;1.73;;;;;;;19.69;48.21;100340.78;5009489;28;20030;-44
2022/04/03 08:18:27;;;;;;;12.32;1.63;;;;;;;19.74;48.18;100342.81;5007722;28;20572;-53
2022/04/03 08:20:53;;;;;;;8.73;1.42;;;;;;;19.73;48.18;100347.28;5005681;28;20034;-49
2022/04/03 08:23:18;;;;;;;6.85;1.77;;;;;;;19.71;48.33;100341.38;5007808;28;20720;-48
2022/04/03 08:25:45;;;;;;;5.30;1.33;;;;;;;19.70;48.32;100345.06;5007540;28;20037;-53
2022/04/03 08:28:11;;;;;;;7.05;1.60;;;;;;;19.69;48.32;100342.63;5007735;28;20034;-52
2022/04/03 08:30:38;;;;;;;6.57;1.42;;;;;;;19.68;48.13;100344.44;5004007;28;20065;-49
2022/04/03 08:33:05;;;;;;;5.43;1.73;;;;;;;19.65;47.84;100350.16;5006870;28;20056;-52
2022/04/03 08:35:32;;;;;;;12.70;2.00;;;;;;;19.64;47.02;100347.69;5006195;28;21855;-51
2022/04/03 08:37:58;;;;;;;12.65;1.40;;;;;;;19.63;46.55;100360.09;5007085;28;20389;-57
2022/04/03 08:40:26;;;;;;;19.48;2.30;;;;;;;19.59;45.95;100356.25;5005985;28;20026;-48
2022/04/03 08:42:54;;;;;;;12.77;1.52;;;;;;;19.55;45.35;100361.13;5006076;28;20030;-46
2022/04/03 08:45:20;;;;;;;14.77;1.63;;;;;;;19.53;45.37;100357.06;5007239;28;20048;-52
2022/04/03 08:47:51;;;;;;;8.15;1.13;;;;;;;19.50;45.36;100352.97;5006505;28;20117;-53
2022/04/03 08:50:19;;;;;;;20.15;1.95;;;;;;;19.49;45.43;100367.19;5006784;28;20041;-45
2022/04/03 08:52:50;;;;;;;9.50;1.90;;;;;;;19.47;45.44;100365.78;5006275;28;20065;-48
2022/04/03 08:55:17;;;;;;;5.85;1.30;;;;;;;19.46;45.62;100366.78;5006985;28;20125;-44
2022/04/03 08:57:43;;;;;;;10.30;1.27;;;;;;;19.44;45.78;100364.34;5008649;28;20033;-47
2022/04/03 09:00:10;;;;;;;9.20;1.95;;;;;;;19.43;45.52;100373.31;5008651;28;20058;-46
2022/04/03 09:02:36;;;;;;;6.50;1.15;;;;;;;19.43;45.74;100368.00;5006501;28;20402;-46
2022/04/03 09:05:01;;;;;;;8.77;1.67;;;;;;;19.43;45.83;100372.47;5008666;28;20233;-43
2022/04/03 09:07:27;;;;;;;15.27;1.40;;;;;;;19.41;45.93;100375.34;5008577;28;20026;-47
2022/04/03 09:09:57;;;;;;;7.38;1.33;;;;;;;19.41;45.97;100372.69;5004828;28;20388;-47
2022/04/03 09:12:23;;;;;;;4.05;1.10;;;;;;;19.40;45.92;100376.34;5006898;28;20081;-48
2022/04/03 09:14:53;;;;;;;6.55;1.52;;;;;;;19.40;45.83;100383.47;5007320;28;20018;-49
2022/04/03 09:17:44;;;;;;;6.88;1.77;;;;;;;19.38;45.93;100382.84;5002419;28;20446;-50
2022/04/03 09:20:15;;;;;;;9.50;0.98;;;;;;;19.38;44.97;100382.84;5006392;28;20376;-45
2022/04/03 09:22:43;;;;;;;6.60;1.45;;;;;;;19.37;43.10;100381.25;5005275;28;20041;-47
2022/04/03 09:25:12;;;;;;;5.22;1.17;;;;;;;19.32;42.43;100378.41;5004868;28;20026;-50
2022/04/03 09:27:47;;;;;;;3.17;0.65;;;;;;;19.28;42.37;100383.28;5002624;28;20389;-50
2022/04/03 09:30:12;;;;;;;4.13;0.70;;;;;;;19.28;42.57;100380.63;4990567;28;20034;-48
2022/04/03 09:32:54;;;;;;;3.85;0.90;;;;;;;19.25;42.67;100391.63;5001857;28;20026;-46
2022/04/03 09:35:26;;;;;;;7.75;1.30;;;;;;;19.28;43.16;100387.75;5003119;28;20030;-50
2022/04/03 09:38:10;;;;;;;6.05;1.42;;;;;;;19.31;43.69;100390.81;5006241;28;20477;-54
2022/04/03 09:40:48;;;;;;;7.18;1.52;;;;;;;19.35;43.66;100394.66;5007547;28;20038;-48
2022/04/03 09:43:27;;;;;;;5.90;1.77;;;;;;;19.34;43.86;100389.59;5007387;28;20269;-52
2022/04/03 09:46:01;;;;;;;5.30;0.93;;;;;;;19.31;43.75;100398.72;5006134;28;20132;-44
2022/04/03 09:48:29;;;;;;;3.60;0.77;;;;;;;19.30;43.94;100389.19;5007152;28;20148;-51
2022/04/03 09:50:56;;;;;;;4.10;1.05;;;;;;;19.29;44.09;100394.66;5021775;28;20369;-49
2022/04/03 09:53:22;;;;;;;2.15;1.05;;;;;;;19.29;44.16;100394.66;4995831;28;20049;-51
2022/04/03 09:55:48;;;;;;;6.78;1.35;;;;;;;19.27;44.17;100394.06;5007748;28;20480;-53
2022/04/03 09:58:15;;;;;;;5.25;1.17;;;;;;;19.26;44.29;100400.34;5006278;28;20128;-49
2022/04/03 10:00:41;;;;;;;6.55;0.90;;;;;;;19.25;44.14;100401.38;5005729;28;20029;-49
2022/04/03 10:03:10;;;;;;;2.63;0.77;;;;;;;19.23;43.94;100397.09;5006002;28;20489;-49
2022/04/03 10:05:36;;;;;;;4.78;0.75;;;;;;;19.25;43.54;100402.19;5006291;28;20041;-46
2022/04/03 10:08:04;;;;;;;5.45;0.90;;;;;;;19.24;43.46;100400.56;5005043;28;20037;-47
2022/04/03 10:10:31;;;;;;;3.28;0.57;;;;;;;19.25;43.44;100398.72;5009925;28;20033;-51
2022/04/03 10:12:58;;;;;;;1.52;0.63;;;;;;;19.25;43.57;100402.19;5004562;28;20074;-45
2022/04/03 10:15:26;;;;;;;3.05;0.70;;;;;;;19.25;43.30;100404.81;5007209;28;20143;-44
2022/04/03 10:17:52;;;;;;;2.00;0.60;;;;;;;19.25;43.33;100407.47;5005573;28;20096;-44
2022/04/03 10:20:18;;;;;;;1.58;0.60;;;;;;;19.25;43.29;100401.38;5006823;28;20045;-52
2022/04/03 10:22:49;;;;;;;2.65;0.77;;;;;;;19.23;43.13;100402.38;5006079;28;20026;-45
2022/04/03 10:25:22;;;;;;;2.45;0.43;;;;;;;19.24;43.23;100411.13;5005856;28;20037;-57
2022/04/03 10:27:50;;;;;;;2.15;0.60;;;;;;;19.23;42.98;100409.50;5007472;28;20033;-51
2022/04/03 10:30:17;;;;;;;1.33;0.57;;;;;;;19.23;43.06;100409.50;5004553;28;20041;-48
2022/04/03 10:32:56;;;;;;;2.28;0.60;;;;;;;19.20;42.78;100405.41;5006983;28;20028;-50
2022/04/03 10:35:22;;;;;;;2.67;0.60;;;;;;;19.21;42.71;100400.94;5005475;28;20080;-53
2022/04/03 10:37:59;;;;;;;3.22;0.70;;;;;;;19.18;42.63;100404.00;5005813;28;20075;-48
2022/04/03 10:40:30;;;;;;;2.78;0.80;;;;;;;19.19;42.71;100405.63;5007388;28;20645;-50
2022/04/03 10:43:06;;;;;;;1.52;0.80;;;;;;;19.17;42.56;100399.72;5006996;28;20168;-46
2022/04/03 10:45:46;;;;;;;2.00;0.55;;;;;;;19.17;42.60;100403.19;5005688;28;20757;-51
2022/04/03 10:48:20;;;;;;;4.60;1.30;;;;;;;19.15;42.55;100402.56;5002431;28;20206;-48
2022/04/03 10:51:21;;;;;;;2.75;0.70;;;;;;;19.14;42.41;100410.69;5006719;28;20076;-48
2022/04/03 10:53:59;;;;;;;3.60;0.70;;;;;;;19.13;42.59;100396.69;5004857;28;20041;-48
2022/04/03 10:56:28;;;;;;;1.20;0.52;;;;;;;19.14;42.80;100406.22;5006493;28;20034;-48
2022/04/03 10:58:56;;;;;;;1.45;0.55;;;;;;;19.15;42.64;100399.13;5006221;28;20041;-55
2022/04/03 11:01:30;;;;;;;3.42;0.60;;;;;;;19.14;42.71;100405.41;5008650;28;20116;-50
2022/04/03 11:04:10;;;;;;;2.55;0.73;;;;;;;19.12;43.65;100397.69;4999924;28;20068;-53
2022/04/03 11:06:41;;;;;;;5.60;1.20;;;;;;;19.13;43.77;100390.56;5005767;28;20505;-47
2022/04/03 11:09:12;;;;;;;8.10;0.80;;;;;;;19.11;43.67;100390.78;5007249;28;20052;-51
2022/04/03 11:11:43;;;;;;;5.05;0.55;;;;;;;19.09;43.91;100392.00;5006058;28;20038;-57
2022/04/03 11:14:10;;;;;;;2.55;0.65;;;;;;;19.09;44.31;100395.44;5007751;28;20497;-43
2022/04/03 11:16:52;;;;;;;3.75;0.40;;;;;;;19.07;43.65;100394.03;5003880;28;20136;-44
2022/04/03 11:19:36;;;;;;;2.42;0.52;;;;;;;19.04;43.55;100389.97;4998161;28;20026;-46
2022/04/03 11:22:03;;;;;;;1.98;0.50;;;;;;;19.07;43.76;100401.94;5019324;28;20034;-49
2022/04/03 11:24:30;;;;;;;1.65;0.40;;;;;;;19.07;44.00;100389.56;5005552;28;20141;-50
2022/04/03 11:26:55;;;;;;;3.60;0.50;;;;;;;19.08;44.36;100398.28;5008216;28;20069;-51
2022/04/03 11:29:21;;;;;;;4.90;0.50;;;;;;;19.07;44.59;100400.13;5010281;28;20064;-44
2022/04/03 11:31:49;;;;;;;6.03;0.57;;;;;;;19.13;45.53;100403.78;5008868;28;20026;-44